sensor_id;sensor_type;location;lat;lon;timestamp;pressure;altitude;pressure_sealevel;temperature;humidity
8705;BME280;4389;41.932;25.904;2023-05-25T00:01:16;100398.88;;;13.74;100.00
8705;BME280;4389;41.932;25.904;2023-05-25T00:03:43;100401.22;;;13.77;100.00
8705;BME280;4389;41.932;25.904;2023-05-25T00:06:10;100396.91;;;13.76;100.00
8705;BME280;4389;41.932;25.904;2023-05-25T00:08:39;100398.94;;;13.82;100.00
8705;BME280;4389;41.932;25.904;2023-05-25T00:11:06;100398.94;;;13.82;100.00
8705;BME280;4389;41.932;25.904;2023-05-25T00:13:32;100409.00;;;13.96;100.00
8705;BME280;4389;41.932;25.904;2023-05-25T00:15:59;100409.00;;;13.96;100.00
8705;BME280;4389;41.932;25.904;2023-05-25T00:18:26;100409.84;;;14.04;100.00
8705;BME280;4389;41.932;25.904;2023-05-25T00:20:53;100410.56;;;14.14;100.00
8705;BME280;4389;41.932;25.904;2023-05-25T00:23:20;100406.84;;;14.33;100.00
8705;BME280;4389;41.932;25.904;2023-05-25T00:25:48;100405.16;;;14.32;100.00
8705;BME280;4389;41.932;25.904;2023-05-25T00:28:15;100397.81;;;14.26;100.00
8705;BME280;4389;41.932;25.904;2023-05-25T00:30:42;100398.88;;;14.41;100.00
8705;BME280;4389;41.932;25.904;2023-05-25T00:33:09;100402.19;;;14.35;100.00
8705;BME280;4389;41.932;25.904;2023-05-25T00:35:36;100392.81;;;14.23;100.00
8705;BME280;4389;41.932;25.904;2023-05-25T00:38:02;100385.09;;;14.12;100.00
8705;BME280;4389;41.932;25.904;2023-05-25T00:40:29;100390.53;;;14.02;100.00
8705;BME280;4389;41.932;25.904;2023-05-25T00:42:58;100387.41;;;14.07;100.00
8705;BME280;4389;41.932;25.904;2023-05-25T00:45:25;100380.09;;;14.09;100.00
8705;BME280;4389;41.932;25.904;2023-05-25T00:47:52;100396.56;;;14.12;100.00
8705;BME280;4389;41.932;25.904;2023-05-25T00:50:25;100398.19;;;14.05;100.00
8705;BME280;4389;41.932;25.904;2023-05-25T00:52:59;100403.41;;;14.15;100.00
8705;BME280;4389;41.932;25.904;2023-05-25T00:55:27;100411.38;;;14.15;100.00
8705;BME280;4389;41.932;25.904;2023-05-25T00:57:57;100400.69;;;14.07;100.00
8705;BME280;4389;41.932;25.904;2023-05-25T01:00:27;100404.78;;;14.19;100.00
8705;BME280;4389;41.932;25.904;2023-05-25T01:02:55;100413.47;;;14.37;100.00
8705;BME280;4389;41.932;25.904;2023-05-25T01:05:24;100400.81;;;14.31;100.00
8705;BME280;4389;41.932;25.904;2023-05-25T01:07:55;100404.69;;;14.36;100.00
8705;BME280;4389;41.932;25.904;2023-05-25T01:10:29;100408.34;;;14.35;100.00
8705;BME280;4389;41.932;25.904;2023-05-25T01:13:01;100409.81;;;14.30;100.00
8705;BME280;4389;41.932;25.904;2023-05-25T01:15:28;100405.25;;;14.14;100.00
8705;BME280;4389;41.932;25.904;2023-05-25T01:17:56;100400.97;;;14.21;100.00
8705;BME280;4389;41.932;25.904;2023-05-25T01:20:24;100403.44;;;14.23;100.00
8705;BME280;4389;41.932;25.904;2023-05-25T01:22:56;100401.78;;;14.22;100.00
8705;BME280;4389;41.932;25.904;2023-05-25T01:25:30;100409.81;;;14.30;100.00
8705;BME280;4389;41.932;25.904;2023-05-25T01:28:03;100406.28;;;14.21;100.00
8705;BME280;4389;41.932;25.904;2023-05-25T01:30:31;100405.44;;;14.21;100.00
8705;BME280;4389;41.932;25.904;2023-05-25T01:33:00;100396.16;;;14.25;100.00
8705;BME280;4389;41.932;25.904;2023-05-25T01:35:28;100391.25;;;14.12;100.00
8705;BME280;4389;41.932;25.904;2023-05-25T01:37:57;100385.91;;;14.12;100.00
8705;BME280;4389;41.932;25.904;2023-05-25T01:40:24;100383.44;;;14.11;100.00
8705;BME280;4389;41.932;25.904;2023-05-25T01:42:52;100386.75;;;14.13;100.00
8705;BME280;4389;41.932;25.904;2023-05-25T01:45:19;100391.72;;;14.08;100.00
8705;BME280;4389;41.932;25.904;2023-05-25T01:47:51;100393.38;;;14.09;100.00
8705;BME280;4389;41.932;25.904;2023-05-25T01:50:22;100394.59;;;14.14;100.00
8705;BME280;4389;41.932;25.904;2023-05-25T01:52:58;100387.41;;;14.07;100.00
8705;BME280;4389;41.932;25.904;2023-05-25T01:55:28;100398.69;;;14.01;100.00
8705;BME280;4389;41.932;25.904;2023-05-25T01:57:58;100389.03;;;14.00;100.00
8705;BME280;4389;41.932;25.904;2023-05-25T02:00:26;100395.47;;;14.23;100.00
8705;BME280;4389;41.932;25.904;2023-05-25T02:02:55;100396.47;;;14.22;100.00
8705;BME280;4389;41.932;25.904;2023-05-25T02:05:23;100394.47;;;14.24;100.00
8705;BME280;4389;41.932;25.904;2023-05-25T02:07:51;100398.97;;;14.23;100.00
8705;BME280;4389;41.932;25.904;2023-05-25T02:10:19;100400.78;;;14.23;100.00
8705;BME280;4389;41.932;25.904;2023-05-25T02:12:46;100394.81;;;14.21;100.00
8705;BME280;4389;41.932;25.904;2023-05-25T02:15:14;100406.72;;;14.17;100.00
8705;BME280;4389;41.932;25.904;2023-05-25T02:17:41;100409.69;;;14.06;100.00
8705;BME280;4389;41.932;25.904;2023-05-25T02:20:09;100410.44;;;13.90;100.00
8705;BME280;4389;41.932;25.904;2023-05-25T02:22:36;100420.66;;;13.52;100.00
8705;BME280;4389;41.932;25.904;2023-05-25T02:25:03;100421.03;;;13.32;100.00
8705;BME280;4389;41.932;25.904;2023-05-25T02:27:32;100422.16;;;13.29;100.00
8705;BME280;4389;41.932;25.904;2023-05-25T02:29:59;100419.47;;;13.21;100.00
8705;BME280;4389;41.932;25.904;2023-05-25T02:32:25;100421.44;;;13.19;100.00
8705;BME280;4389;41.932;25.904;2023-05-25T02:34:53;100425.50;;;13.31;100.00
8705;BME280;4389;41.932;25.904;2023-05-25T02:37:20;100429.03;;;13.14;100.00
8705;BME280;4389;41.932;25.904;2023-05-25T02:39:47;100431.56;;;12.98;100.00
8705;BME280;4389;41.932;25.904;2023-05-25T02:42:14;100426.91;;;13.00;100.00
8705;BME280;4389;41.932;25.904;2023-05-25T02:44:42;100425.69;;;13.12;100.00
8705;BME280;4389;41.932;25.904;2023-05-25T02:47:12;100436.97;;;13.32;100.00
8705;BME280;4389;41.932;25.904;2023-05-25T02:49:39;100432.38;;;13.42;100.00
8705;BME280;4389;41.932;25.904;2023-05-25T02:52:06;100430.63;;;13.50;100.00
8705;BME280;4389;41.932;25.904;2023-05-25T02:54:33;100437.31;;;13.54;100.00
8705;BME280;4389;41.932;25.904;2023-05-25T02:57:00;100439.00;;;13.55;100.00
8705;BME280;4389;41.932;25.904;2023-05-25T02:59:27;100453.88;;;13.48;100.00
8705;BME280;4389;41.932;25.904;2023-05-25T03:01:56;100447.63;;;13.57;100.00
8705;BME280;4389;41.932;25.904;2023-05-25T03:04:23;100453.31;;;13.62;100.00
8705;BME280;4389;41.932;25.904;2023-05-25T03:06:50;100454.31;;;13.61;100.00
8705;BME280;4389;41.932;25.904;2023-05-25T03:09:17;100450.06;;;13.68;100.00
8705;BME280;4389;41.932;25.904;2023-05-25T03:11:44;100446.00;;;13.89;100.00
8705;BME280;4389;41.932;25.904;2023-05-25T03:14:10;100451.06;;;14.26;100.00
8705;BME280;4389;41.932;25.904;2023-05-25T03:16:38;100451.19;;;14.74;98.56
8705;BME280;4389;41.932;25.904;2023-05-25T03:19:06;100461.94;;;15.30;95.43
8705;BME280;4389;41.932;25.904;2023-05-25T03:21:36;100459.44;;;15.84;92.23
8705;BME280;4389;41.932;25.904;2023-05-25T03:24:03;100462.44;;;16.36;88.61
8705;BME280;4389;41.932;25.904;2023-05-25T03:26:31;100458.69;;;16.83;85.88
8705;BME280;4389;41.932;25.904;2023-05-25T03:28:58;100458.03;;;17.34;83.91
8705;BME280;4389;41.932;25.904;2023-05-25T03:31:25;100465.41;;;17.55;81.30
8705;BME280;4389;41.932;25.904;2023-05-25T03:33:51;100468.59;;;17.73;80.99
8705;BME280;4389;41.932;25.904;2023-05-25T03:36:19;100467.97;;;18.14;78.49
8705;BME280;4389;41.932;25.904;2023-05-25T03:38:46;100468.81;;;18.29;77.06
8705;BME280;4389;41.932;25.904;2023-05-25T03:41:13;100461.31;;;18.10;77.82
8705;BME280;4389;41.932;25.904;2023-05-25T03:43:40;100468.88;;;17.41;78.94
8705;BME280;4389;41.932;25.904;2023-05-25T03:46:07;100466.56;;;17.30;81.42
8705;BME280;4389;41.932;25.904;2023-05-25T03:48:35;100466.69;;;17.14;81.40
8705;BME280;4389;41.932;25.904;2023-05-25T03:51:03;100473.59;;;17.31;82.24
8705;BME280;4389;41.932;25.904;2023-05-25T03:53:31;100475.88;;;18.45;78.24
8705;BME280;4389;41.932;25.904;2023-05-25T03:55:57;100478.63;;;19.64;73.64
8705;BME280;4389;41.932;25.904;2023-05-25T03:58:24;100477.38;;;20.55;69.73
8705;BME280;4389;41.932;25.904;2023-05-25T04:00:51;100483.88;;;21.27;66.34
8705;BME280;4389;41.932;25.904;2023-05-25T04:03:19;100490.34;;;21.65;64.50
8705;BME280;4389;41.932;25.904;2023-05-25T04:05:46;100496.78;;;21.77;63.53
8705;BME280;4389;41.932;25.904;2023-05-25T04:08:14;100491.81;;;22.00;62.40
8705;BME280;4389;41.932;25.904;2023-05-25T04:10:44;100490.88;;;22.58;60.88
8705;BME280;4389;41.932;25.904;2023-05-25T04:13:11;100498.19;;;23.02;58.84
8705;BME280;4389;41.932;25.904;2023-05-25T04:15:38;100489.28;;;22.95;60.31
8705;BME280;4389;41.932;25.904;2023-05-25T04:18:05;100499.47;;;23.61;57.85
8705;BME280;4389;41.932;25.904;2023-05-25T04:20:31;100502.25;;;23.79;56.61
8705;BME280;4389;41.932;25.904;2023-05-25T04:22:58;100503.13;;;24.22;56.18
8705;BME280;4389;41.932;25.904;2023-05-25T04:25:25;100495.22;;;24.03;56.86
8705;BME280;4389;41.932;25.904;2023-05-25T04:27:53;100489.94;;;24.50;55.36
8705;BME280;4389;41.932;25.904;2023-05-25T04:30:21;100492.63;;;23.34;58.87
8705;BME280;4389;41.932;25.904;2023-05-25T04:32:48;100489.97;;;23.52;59.40
8705;BME280;4389;41.932;25.904;2023-05-25T04:35:15;100495.72;;;23.93;59.26
8705;BME280;4389;41.932;25.904;2023-05-25T04:37:45;100493.53;;;23.77;59.31
8705;BME280;4389;41.932;25.904;2023-05-25T04:40:12;100492.00;;;24.12;58.68
8705;BME280;4389;41.932;25.904;2023-05-25T04:42:39;100498.34;;;24.42;57.61
8705;BME280;4389;41.932;25.904;2023-05-25T04:45:08;100494.25;;;24.15;58.65
8705;BME280;4389;41.932;25.904;2023-05-25T04:47:36;100494.13;;;24.46;58.03
8705;BME280;4389;41.932;25.904;2023-05-25T04:50:06;100496.22;;;24.44;57.65
8705;BME280;4389;41.932;25.904;2023-05-25T04:52:34;100502.94;;;23.99;58.91
8705;BME280;4389;41.932;25.904;2023-05-25T04:55:01;100497.28;;;23.08;62.66
8705;BME280;4389;41.932;25.904;2023-05-25T04:57:28;100499.63;;;22.41;66.30
8705;BME280;4389;41.932;25.904;2023-05-25T04:59:56;100499.22;;;21.46;70.86
8705;BME280;4389;41.932;25.904;2023-05-25T05:02:24;100494.44;;;20.75;74.26
8705;BME280;4389;41.932;25.904;2023-05-25T05:04:51;100495.22;;;20.22;77.25
8705;BME280;4389;41.932;25.904;2023-05-25T05:07:18;100489.81;;;19.67;80.44
8705;BME280;4389;41.932;25.904;2023-05-25T05:09:45;100491.66;;;19.67;81.51
8705;BME280;4389;41.932;25.904;2023-05-25T05:12:12;100477.16;;;19.61;82.12
8705;BME280;4389;41.932;25.904;2023-05-25T05:14:39;100482.34;;;19.90;81.30
8705;BME280;4389;41.932;25.904;2023-05-25T05:17:05;100484.63;;;20.14;80.97
8705;BME280;4389;41.932;25.904;2023-05-25T05:19:34;100486.66;;;20.12;80.83
8705;BME280;4389;41.932;25.904;2023-05-25T05:22:00;100487.44;;;20.06;81.34
8705;BME280;4389;41.932;25.904;2023-05-25T05:24:27;100488.22;;;20.00;81.75
8705;BME280;4389;41.932;25.904;2023-05-25T05:26:54;100489.75;;;20.09;81.28
8705;BME280;4389;41.932;25.904;2023-05-25T05:29:21;100481.69;;;20.09;82.46
8705;BME280;4389;41.932;25.904;2023-05-25T05:31:48;100480.00;;;20.36;81.70
8705;BME280;4389;41.932;25.904;2023-05-25T05:34:15;100489.69;;;20.30;80.87
8705;BME280;4389;41.932;25.904;2023-05-25T05:36:43;100484.22;;;20.51;80.58
8705;BME280;4389;41.932;25.904;2023-05-25T05:39:10;100481.69;;;20.43;81.08
8705;BME280;4389;41.932;25.904;2023-05-25T05:41:36;100487.97;;;20.63;80.80
8705;BME280;4389;41.932;25.904;2023-05-25T05:44:03;100486.97;;;20.71;79.11
8705;BME280;4389;41.932;25.904;2023-05-25T05:46:30;100491.94;;;20.67;78.70
8705;BME280;4389;41.932;25.904;2023-05-25T05:48:57;100495.31;;;20.82;78.12
8705;BME280;4389;41.932;25.904;2023-05-25T05:51:24;100490.44;;;20.92;78.57
8705;BME280;4389;41.932;25.904;2023-05-25T05:53:53;100496.91;;;21.11;77.48
8705;BME280;4389;41.932;25.904;2023-05-25T05:56:19;100493.31;;;20.97;77.98
8705;BME280;4389;41.932;25.904;2023-05-25T05:58:46;100504.16;;;21.23;77.69
8705;BME280;4389;41.932;25.904;2023-05-25T06:01:14;100499.59;;;21.17;77.31
8705;BME280;4389;41.932;25.904;2023-05-25T06:03:41;100502.94;;;21.26;76.82
8705;BME280;4389;41.932;25.904;2023-05-25T06:06:08;100500.84;;;21.34;76.65
8705;BME280;4389;41.932;25.904;2023-05-25T06:08:35;100503.38;;;21.42;77.39
8705;BME280;4389;41.932;25.904;2023-05-25T06:11:04;100502.13;;;21.45;76.87
8705;BME280;4389;41.932;25.904;2023-05-25T06:13:30;100505.84;;;21.44;76.76
8705;BME280;4389;41.932;25.904;2023-05-25T06:15:57;100500.88;;;21.47;77.61
8705;BME280;4389;41.932;25.904;2023-05-25T06:18:24;100498.38;;;21.39;78.31
8705;BME280;4389;41.932;25.904;2023-05-25T06:20:51;100495.28;;;21.55;77.00
8705;BME280;4389;41.932;25.904;2023-05-25T06:23:17;100495.09;;;21.50;75.75
8705;BME280;4389;41.932;25.904;2023-05-25T06:25:45;100505.34;;;21.01;74.80
8705;BME280;4389;41.932;25.904;2023-05-25T06:28:14;100500.31;;;20.85;74.50
8705;BME280;4389;41.932;25.904;2023-05-25T06:30:41;100499.16;;;20.67;75.12
8705;BME280;4389;41.932;25.904;2023-05-25T06:33:07;100511.44;;;20.76;75.11
8705;BME280;4389;41.932;25.904;2023-05-25T06:35:34;100509.78;;;20.81;74.18
8705;BME280;4389;41.932;25.904;2023-05-25T06:38:02;100501.09;;;20.79;75.78
8705;BME280;4389;41.932;25.904;2023-05-25T06:40:28;100514.94;;;21.23;74.32
8705;BME280;4389;41.932;25.904;2023-05-25T06:42:55;100515.78;;;21.30;72.30
8705;BME280;4389;41.932;25.904;2023-05-25T06:45:24;100512.47;;;21.41;73.14
8705;BME280;4389;41.932;25.904;2023-05-25T06:47:50;100511.28;;;21.63;73.82
8705;BME280;4389;41.932;25.904;2023-05-25T06:50:17;100518.75;;;21.74;71.45
8705;BME280;4389;41.932;25.904;2023-05-25T06:52:44;100514.19;;;21.88;71.19
8705;BME280;4389;41.932;25.904;2023-05-25T06:55:11;100510.25;;;21.77;71.04
8705;BME280;4389;41.932;25.904;2023-05-25T06:57:39;100507.34;;;21.98;71.48
8705;BME280;4389;41.932;25.904;2023-05-25T07:00:06;100509.03;;;21.99;68.91
8705;BME280;4389;41.932;25.904;2023-05-25T07:02:37;100510.84;;;22.18;69.71
8705;BME280;4389;41.932;25.904;2023-05-25T07:05:05;100509.41;;;22.42;69.60
8705;BME280;4389;41.932;25.904;2023-05-25T07:07:32;100502.94;;;22.43;68.74
8705;BME280;4389;41.932;25.904;2023-05-25T07:10:02;100499.38;;;22.55;69.31
8705;BME280;4389;41.932;25.904;2023-05-25T07:12:30;100500.06;;;22.38;70.01
8705;BME280;4389;41.932;25.904;2023-05-25T07:14:57;100499.28;;;21.92;70.60
8705;BME280;4389;41.932;25.904;2023-05-25T07:17:23;100500.09;;;21.73;73.19
8705;BME280;4389;41.932;25.904;2023-05-25T07:19:52;100491.34;;;21.58;73.14
8705;BME280;4389;41.932;25.904;2023-05-25T07:22:19;100493.69;;;21.67;74.01
8705;BME280;4389;41.932;25.904;2023-05-25T07:24:48;100494.72;;;21.92;72.93
8705;BME280;4389;41.932;25.904;2023-05-25T07:27:15;100496.38;;;21.93;73.57
8705;BME280;4389;41.932;25.904;2023-05-25T07:29:41;100505.06;;;21.63;74.30
8705;BME280;4389;41.932;25.904;2023-05-25T07:32:08;100497.41;;;21.60;75.10
8705;BME280;4389;41.932;25.904;2023-05-25T07:34:35;100498.88;;;21.69;74.49
8705;BME280;4389;41.932;25.904;2023-05-25T07:37:04;100493.84;;;21.59;75.35
8705;BME280;4389;41.932;25.904;2023-05-25T07:39:30;100499.66;;;21.56;75.24
8705;BME280;4389;41.932;25.904;2023-05-25T07:41:57;100495.91;;;21.44;75.38
8705;BME280;4389;41.932;25.904;2023-05-25T07:44:24;100508.75;;;21.55;76.15
8705;BME280;4389;41.932;25.904;2023-05-25T07:46:51;100496.13;;;21.62;76.71
8705;BME280;4389;41.932;25.904;2023-05-25T07:49:18;100502.94;;;21.52;76.15
8705;BME280;4389;41.932;25.904;2023-05-25T07:51:45;100503.00;;;21.84;74.57
8705;BME280;4389;41.932;25.904;2023-05-25T07:54:13;100510.47;;;22.08;74.48
8705;BME280;4389;41.932;25.904;2023-05-25T07:56:40;100503.31;;;22.59;71.86
8705;BME280;4389;41.932;25.904;2023-05-25T07:59:07;100506.97;;;22.84;71.86
8705;BME280;4389;41.932;25.904;2023-05-25T08:01:34;100510.47;;;22.91;71.66
8705;BME280;4389;41.932;25.904;2023-05-25T08:04:01;100509.38;;;22.99;72.36
8705;BME280;4389;41.932;25.904;2023-05-25T08:06:28;100516.38;;;23.19;70.26
8705;BME280;4389;41.932;25.904;2023-05-25T08:08:54;100515.81;;;23.48;70.44
8705;BME280;4389;41.932;25.904;2023-05-25T08:11:23;100514.09;;;23.54;69.56
8705;BME280;4389;41.932;25.904;2023-05-25T08:13:52;100508.28;;;23.50;69.98
8705;BME280;4389;41.932;25.904;2023-05-25T08:16:18;100500.22;;;23.44;71.39
8705;BME280;4389;41.932;25.904;2023-05-25T08:18:45;100512.47;;;23.46;70.29
8705;BME280;4389;41.932;25.904;2023-05-25T08:21:12;100502.19;;;23.30;71.29
8705;BME280;4389;41.932;25.904;2023-05-25T08:23:39;100499.28;;;23.25;71.58
8705;BME280;4389;41.932;25.904;2023-05-25T08:26:07;100499.22;;;23.38;72.44
8705;BME280;4389;41.932;25.904;2023-05-25T08:28:35;100492.94;;;23.44;72.15
8705;BME280;4389;41.932;25.904;2023-05-25T08:31:02;100495.75;;;23.62;69.45
8705;BME280;4389;41.932;25.904;2023-05-25T08:33:28;100492.63;;;23.83;71.29
8705;BME280;4389;41.932;25.904;2023-05-25T08:35:55;100502.19;;;23.86;68.10
8705;BME280;4389;41.932;25.904;2023-05-25T08:38:23;100492.81;;;23.64;66.78
8705;BME280;4389;41.932;25.904;2023-05-25T08:40:58;100496.31;;;23.95;65.53
8705;BME280;4389;41.932;25.904;2023-05-25T08:43:27;100501.47;;;24.21;65.08
8705;BME280;4389;41.932;25.904;2023-05-25T08:45:58;100498.47;;;24.29;66.23
8705;BME280;4389;41.932;25.904;2023-05-25T08:48:29;100484.75;;;24.31;65.21
8705;BME280;4389;41.932;25.904;2023-05-25T08:50:57;100483.81;;;24.54;65.89
8705;BME280;4389;41.932;25.904;2023-05-25T08:53:27;100484.66;;;24.55;64.34
8705;BME280;4389;41.932;25.904;2023-05-25T08:55:56;100485.78;;;24.47;65.76
8705;BME280;4389;41.932;25.904;2023-05-25T08:58:29;100481.06;;;24.43;65.14
8705;BME280;4389;41.932;25.904;2023-05-25T09:01:02;100472.09;;;24.42;64.32
8705;BME280;4389;41.932;25.904;2023-05-25T09:03:31;100468.22;;;24.56;64.03
8705;BME280;4389;41.932;25.904;2023-05-25T09:05:59;100461.66;;;24.46;64.60
8705;BME280;4389;41.932;25.904;2023-05-25T09:08:26;100466.03;;;24.65;65.21
8705;BME280;4389;41.932;25.904;2023-05-25T09:10:54;100464.22;;;24.77;65.03
8705;BME280;4389;41.932;25.904;2023-05-25T09:13:22;100453.84;;;24.74;64.35
8705;BME280;4389;41.932;25.904;2023-05-25T09:15:49;100459.16;;;25.10;62.86
8705;BME280;4389;41.932;25.904;2023-05-25T09:18:17;100457.19;;;25.17;61.45
8705;BME280;4389;41.932;25.904;2023-05-25T09:20:44;100462.69;;;24.99;60.34
8705;BME280;4389;41.932;25.904;2023-05-25T09:23:12;100447.47;;;25.27;61.39
8705;BME280;4389;41.932;25.904;2023-05-25T09:25:40;100449.44;;;25.50;59.56
8705;BME280;4389;41.932;25.904;2023-05-25T09:28:07;100453.53;;;25.41;59.84
8705;BME280;4389;41.932;25.904;2023-05-25T09:30:35;100446.56;;;25.33;60.85
8705;BME280;4389;41.932;25.904;2023-05-25T09:33:09;100443.75;;;25.40;59.96
8705;BME280;4389;41.932;25.904;2023-05-25T09:35:38;100438.44;;;25.33;59.96
8705;BME280;4389;41.932;25.904;2023-05-25T09:38:05;100440.34;;;25.44;59.23
8705;BME280;4389;41.932;25.904;2023-05-25T09:40:33;100446.38;;;25.58;58.92
8705;BME280;4389;41.932;25.904;2023-05-25T09:43:01;100443.06;;;25.56;58.95
8705;BME280;4389;41.932;25.904;2023-05-25T09:45:28;100434.25;;;25.83;57.15
8705;BME280;4389;41.932;25.904;2023-05-25T09:47:55;100435.22;;;26.23;56.06
8705;BME280;4389;41.932;25.904;2023-05-25T09:50:22;100438.09;;;26.45;55.44
8705;BME280;4389;41.932;25.904;2023-05-25T09:52:57;100422.72;;;26.73;55.03
8705;BME280;4389;41.932;25.904;2023-05-25T09:55:26;100438.56;;;26.65;53.96
8705;BME280;4389;41.932;25.904;2023-05-25T09:57:53;100421.19;;;26.66;54.85
8705;BME280;4389;41.932;25.904;2023-05-25T10:00:21;100436.28;;;26.73;54.76
8705;BME280;4389;41.932;25.904;2023-05-25T10:02:48;100430.72;;;26.80;53.62
8705;BME280;4389;41.932;25.904;2023-05-25T10:05:15;100438.47;;;26.88;53.56
8705;BME280;4389;41.932;25.904;2023-05-25T10:07:43;100441.78;;;26.90;52.45
8705;BME280;4389;41.932;25.904;2023-05-25T10:10:12;100444.19;;;27.31;52.51
8705;BME280;4389;41.932;25.904;2023-05-25T10:12:40;100433.00;;;27.44;51.75
8705;BME280;4389;41.932;25.904;2023-05-25T10:15:10;100435.00;;;27.98;51.00
8705;BME280;4389;41.932;25.904;2023-05-25T10:17:42;100436.09;;;28.18;47.75
8705;BME280;4389;41.932;25.904;2023-05-25T10:20:10;100434.00;;;28.04;47.63
8705;BME280;4389;41.932;25.904;2023-05-25T10:22:41;100422.31;;;27.87;49.69
8705;BME280;4389;41.932;25.904;2023-05-25T10:25:16;100422.13;;;28.10;49.23
8705;BME280;4389;41.932;25.904;2023-05-25T10:27:47;100402.63;;;28.18;47.78
8705;BME280;4389;41.932;25.904;2023-05-25T10:30:17;100411.28;;;27.77;49.74
8705;BME280;4389;41.932;25.904;2023-05-25T10:32:45;100403.34;;;27.92;47.98
8705;BME280;4389;41.932;25.904;2023-05-25T10:35:13;100398.53;;;27.99;46.09
8705;BME280;4389;41.932;25.904;2023-05-25T10:37:40;100387.28;;;28.12;46.88
8705;BME280;4389;41.932;25.904;2023-05-25T10:40:08;100389.09;;;27.85;47.60
8705;BME280;4389;41.932;25.904;2023-05-25T10:42:37;100395.59;;;27.84;46.72
8705;BME280;4389;41.932;25.904;2023-05-25T10:45:06;100386.50;;;27.95;43.19
8705;BME280;4389;41.932;25.904;2023-05-25T10:47:37;100384.41;;;27.80;43.43
8705;BME280;4389;41.932;25.904;2023-05-25T10:50:17;100387.34;;;27.79;44.05
8705;BME280;4389;41.932;25.904;2023-05-25T10:52:44;100370.25;;;28.00;42.68
8705;BME280;4389;41.932;25.904;2023-05-25T10:55:11;100377.53;;;28.16;43.28
8705;BME280;4389;41.932;25.904;2023-05-25T10:57:39;100377.94;;;28.03;43.22
8705;BME280;4389;41.932;25.904;2023-05-25T11:00:07;100384.13;;;28.20;42.31
8705;BME280;4389;41.932;25.904;2023-05-25T11:02:55;100390.78;;;28.29;41.35
8705;BME280;4389;41.932;25.904;2023-05-25T11:05:30;100381.44;;;28.03;40.65
8705;BME280;4389;41.932;25.904;2023-05-25T11:07:58;100393.97;;;27.83;39.69
8705;BME280;4389;41.932;25.904;2023-05-25T11:10:43;100392.31;;;27.82;39.14
8705;BME280;4389;41.932;25.904;2023-05-25T11:13:33;100382.78;;;28.01;42.92
8705;BME280;4389;41.932;25.904;2023-05-25T11:16:22;100389.66;;;27.87;41.32
8705;BME280;4389;41.932;25.904;2023-05-25T11:19:00;100389.31;;;27.83;42.71
8705;BME280;4389;41.932;25.904;2023-05-25T11:21:42;100378.63;;;27.60;41.85
8705;BME280;4389;41.932;25.904;2023-05-25T11:24:14;100398.41;;;27.56;44.01
8705;BME280;4389;41.932;25.904;2023-05-25T11:26:59;100375.00;;;27.22;44.59
8705;BME280;4389;41.932;25.904;2023-05-25T11:29:30;100380.63;;;27.32;44.81
8705;BME280;4389;41.932;25.904;2023-05-25T11:31:57;100371.88;;;27.30;44.62
8705;BME280;4389;41.932;25.904;2023-05-25T11:34:25;100373.84;;;27.51;44.12
8705;BME280;4389;41.932;25.904;2023-05-25T11:36:54;100384.06;;;27.77;43.23
8705;BME280;4389;41.932;25.904;2023-05-25T11:39:22;100374.59;;;28.01;41.18
8705;BME280;4389;41.932;25.904;2023-05-25T11:41:51;100375.88;;;28.15;42.96
8705;BME280;4389;41.932;25.904;2023-05-25T11:44:27;100376.91;;;28.52;41.73
8705;BME280;4389;41.932;25.904;2023-05-25T11:46:59;100363.25;;;28.47;42.52
8705;BME280;4389;41.932;25.904;2023-05-25T11:49:27;100352.69;;;28.77;40.34
8705;BME280;4389;41.932;25.904;2023-05-25T11:51:56;100355.03;;;28.68;41.12
8705;BME280;4389;41.932;25.904;2023-05-25T11:54:24;100343.44;;;28.78;43.07
8705;BME280;4389;41.932;25.904;2023-05-25T11:56:51;100348.91;;;28.35;42.66
8705;BME280;4389;41.932;25.904;2023-05-25T11:59:21;100350.44;;;28.26;40.43
8705;BME280;4389;41.932;25.904;2023-05-25T12:01:57;100351.25;;;28.26;39.34
8705;BME280;4389;41.932;25.904;2023-05-25T12:04:24;100350.09;;;28.39;39.90
8705;BME280;4389;41.932;25.904;2023-05-25T12:06:51;100336.84;;;28.47;39.00
8705;BME280;4389;41.932;25.904;2023-05-25T12:09:19;100335.09;;;28.63;39.66
8705;BME280;4389;41.932;25.904;2023-05-25T12:11:47;100331.00;;;28.60;39.66
8705;BME280;4389;41.932;25.904;2023-05-25T12:14:14;100337.91;;;28.73;38.64
8705;BME280;4389;41.932;25.904;2023-05-25T12:16:41;100333.06;;;28.75;39.07
8705;BME280;4389;41.932;25.904;2023-05-25T12:19:10;100340.50;;;28.84;39.37
8705;BME280;4389;41.932;25.904;2023-05-25T12:21:38;100329.31;;;29.12;38.73
8705;BME280;4389;41.932;25.904;2023-05-25T12:24:06;100325.97;;;29.37;38.57
8705;BME280;4389;41.932;25.904;2023-05-25T12:26:33;100321.00;;;29.24;39.93
8705;BME280;4389;41.932;25.904;2023-05-25T12:29:01;100313.16;;;29.01;40.18
8705;BME280;4389;41.932;25.904;2023-05-25T12:31:31;100322.78;;;28.82;41.00
8705;BME280;4389;41.932;25.904;2023-05-25T12:34:05;100326.06;;;28.84;41.83
8705;BME280;4389;41.932;25.904;2023-05-25T12:36:42;100338.28;;;29.08;39.13
8705;BME280;4389;41.932;25.904;2023-05-25T12:39:10;100334.28;;;29.15;39.80
8705;BME280;4389;41.932;25.904;2023-05-25T12:41:47;100345.06;;;28.79;43.69
8705;BME280;4389;41.932;25.904;2023-05-25T12:44:19;100341.34;;;28.37;45.77
8705;BME280;4389;41.932;25.904;2023-05-25T12:46:47;100343.75;;;28.12;45.86
8705;BME280;4389;41.932;25.904;2023-05-25T12:49:29;100351.28;;;27.34;48.18
8705;BME280;4389;41.932;25.904;2023-05-25T12:51:59;100345.78;;;27.01;49.74
8705;BME280;4389;41.932;25.904;2023-05-25T12:54:36;100341.16;;;26.85;51.68
8705;BME280;4389;41.932;25.904;2023-05-25T12:57:06;100347.78;;;26.61;52.50
8705;BME280;4389;41.932;25.904;2023-05-25T12:59:34;100341.25;;;26.34;50.49
8705;BME280;4389;41.932;25.904;2023-05-25T13:02:01;100343.41;;;26.20;50.20
8705;BME280;4389;41.932;25.904;2023-05-25T13:04:28;100357.50;;;26.06;50.25